createdAt,value
2019-03-12T00:00:15.796Z,7.13
2019-03-12T00:01:16.071Z,7.23
2019-03-12T00:02:16.090Z,7.2
2019-03-12T00:03:16.109Z,7.17
2019-03-12T00:04:15.855Z,7.23
2019-03-12T00:05:15.870Z,7.2
2019-03-12T00:06:16.154Z,7.15
2019-03-12T00:07:16.431Z,7.17
2019-03-12T00:08:15.927Z,7.14
2019-03-12T00:09:16.296Z,7.2
2019-03-12T00:10:16.224Z,7.17
2019-03-12T00:11:16.510Z,7.17
2019-03-12T00:12:16.256Z,7.2
2019-03-12T00:13:16.538Z,7.15
2019-03-12T00:14:16.411Z,7.21
2019-03-12T00:15:16.062Z,7.2
2019-03-12T00:16:16.469Z,7.15
2019-03-12T00:17:16.071Z,7.2
2019-03-12T00:18:16.366Z,7.2
2019-03-12T00:19:16.377Z,7.21
2019-03-12T00:20:16.126Z,7.2
2019-03-12T00:21:16.457Z,7.18
2019-03-12T00:22:16.521Z,7.2
2019-03-12T00:23:16.698Z,7.24
2019-03-12T00:24:16.717Z,7.18
2019-03-12T00:25:16.468Z,7.14
2019-03-12T00:26:16.224Z,7.17
2019-03-12T00:27:16.761Z,7.21
2019-03-12T00:28:16.532Z,7.23
2019-03-12T00:29:16.801Z,7.18
2019-03-12T00:30:16.551Z,7.21
2019-03-12T00:31:16.573Z,7.23
2019-03-12T00:32:16.326Z,7.17
2019-03-12T00:33:16.607Z,7.2
2019-03-12T00:34:16.387Z,7.21
2019-03-12T00:35:16.373Z,7.2
2019-03-12T00:36:16.441Z,7.17
2019-03-12T00:37:16.680Z,7.15
2019-03-12T00:38:16.694Z,7.24
2019-03-12T00:39:16.444Z,7.2
2019-03-12T00:40:16.983Z,7.21
2019-03-12T00:41:16.473Z,7.21
2019-03-12T00:42:17.026Z,7.24
2019-03-12T00:43:16.509Z,7.18
2019-03-12T00:44:17.066Z,7.21
2019-03-12T00:45:16.546Z,7.18
2019-03-12T00:46:16.821Z,7.17
2019-03-12T00:47:16.583Z,7.14
2019-03-12T00:48:16.868Z,7.18
2019-03-12T00:49:16.879Z,7.2
2019-03-12T00:50:16.888Z,7.2
2019-03-12T00:51:16.907Z,7.15
2019-03-12T00:52:16.656Z,7.18
2019-03-12T00:53:16.943Z,7.18
2019-03-12T00:54:16.697Z,7.21
2019-03-12T00:55:17.233Z,7.18
2019-03-12T00:56:16.727Z,7.2
2019-03-12T00:57:17.274Z,7.21
2019-03-12T00:58:17.024Z,7.18
2019-03-12T00:59:17.308Z,7.24
2019-03-12T01:00:16.800Z,7.2
2019-03-12T01:01:17.072Z,7.24
2019-03-12T01:02:17.094Z,7.18
2019-03-12T01:03:17.119Z,7.21
2019-03-12T01:04:17.120Z,7.11
2019-03-12T01:05:17.141Z,7.15
2019-03-12T01:06:16.895Z,7.23
2019-03-12T01:07:17.172Z,7.21
2019-03-12T01:08:16.925Z,7.17
2019-03-12T01:09:16.976Z,7.14
2019-03-12T01:10:16.976Z,7.23
2019-03-12T01:11:17.236Z,7.24
2019-03-12T01:12:17.622Z,7.2
2019-03-12T01:13:17.020Z,7.21
2019-03-12T01:14:17.284Z,7.23
2019-03-12T01:15:17.308Z,7.24
2019-03-12T01:16:17.424Z,7.18
2019-03-12T01:17:17.076Z,7.24
2019-03-12T01:18:18.553Z,7.21
2019-03-12T01:19:17.112Z,7.17
2019-03-12T01:20:17.653Z,7.18
2019-03-12T01:21:17.145Z,7.14
2019-03-12T01:22:17.429Z,7.24
2019-03-12T01:23:17.442Z,7.17
2019-03-12T01:24:17.200Z,7.17
2019-03-12T01:25:17.736Z,7.21
2019-03-12T01:26:17.224Z,7.17
2019-03-12T01:27:17.767Z,7.11
2019-03-12T01:28:17.342Z,7.21
2019-03-12T01:29:17.536Z,7.11
2019-03-12T01:30:17.556Z,7.23
2019-03-12T01:31:17.587Z,7.18
2019-03-12T01:32:17.329Z,7.21
2019-03-12T01:33:17.428Z,7.15
2019-03-12T01:34:17.626Z,7.2
2019-03-12T01:35:17.654Z,7.21
2019-03-12T01:36:17.443Z,7.17
2019-03-12T01:37:17.672Z,7.21
2019-03-12T01:38:17.426Z,7.21
2019-03-12T01:39:17.446Z,7.21
2019-03-12T01:40:17.991Z,7.2
2019-03-12T01:41:17.478Z,7.15
2019-03-12T01:42:18.020Z,7.2
2019-03-12T01:43:17.512Z,7.15
2019-03-12T01:44:18.070Z,7.17
2019-03-12T01:45:17.578Z,7.1
2019-03-12T01:46:17.560Z,7.25
2019-03-12T01:47:18.099Z,7.2
2019-03-12T01:48:17.930Z,7.17
2019-03-12T01:49:17.873Z,7.18
2019-03-12T01:50:17.891Z,7.15
2019-03-12T01:51:17.646Z,7.17
2019-03-12T01:52:17.926Z,7.18
2019-03-12T01:53:18.213Z,7.24
2019-03-12T01:54:17.968Z,7.24
2019-03-12T01:55:17.979Z,7.24
2019-03-12T01:56:18.009Z,7.18
2019-03-12T01:57:17.745Z,7.23
2019-03-12T01:58:19.138Z,7.21
2019-03-12T01:59:17.777Z,7.2
2019-03-12T02:00:18.330Z,7.17
2019-03-12T02:01:18.075Z,7.15
2019-03-12T02:02:18.378Z,7.23
2019-03-12T02:03:18.107Z,7.17
2019-03-12T02:04:17.869Z,7.24
2019-03-12T02:05:18.149Z,7.21
2019-03-12T02:06:17.899Z,7.21
2019-03-12T02:07:18.325Z,7.15
2019-03-12T02:08:18.460Z,7.2
2019-03-12T02:09:17.967Z,7.17
2019-03-12T02:10:17.966Z,7.15
2019-03-12T02:11:18.240Z,7.18
2019-03-12T02:12:18.260Z,7.15
2019-03-12T02:13:18.273Z,7.24
2019-03-12T02:14:18.028Z,7.15
2019-03-12T02:15:18.314Z,7.17
2019-03-12T02:16:18.326Z,7.17
2019-03-12T02:17:18.079Z,7.1
2019-03-12T02:18:18.622Z,7.15
2019-03-12T02:19:18.636Z,7.18
2019-03-12T02:20:18.396Z,7.15
2019-03-12T02:21:18.149Z,7.14
2019-03-12T02:22:18.485Z,7.13
2019-03-12T02:23:18.177Z,7.17
2019-03-12T02:24:18.460Z,7.17
2019-03-12T02:25:18.475Z,7.14
2019-03-12T02:26:18.488Z,7.18
2019-03-12T02:27:18.506Z,7.06
2019-03-12T02:28:18.525Z,7.18
2019-03-12T02:29:18.542Z,7.03
2019-03-12T02:30:18.570Z,7.18
2019-03-12T02:31:18.584Z,7.13
2019-03-12T02:32:18.337Z,7.03
2019-03-12T02:33:18.680Z,7.21
2019-03-12T02:34:18.888Z,7.03
2019-03-12T02:35:18.661Z,7.02
2019-03-12T02:36:18.403Z,7.05
2019-03-12T02:37:18.942Z,7.03
2019-03-12T02:38:18.695Z,7.02
2019-03-12T02:39:18.712Z,7.05
2019-03-12T02:40:18.733Z,7.05
2019-03-12T02:41:18.486Z,7.07
2019-03-12T02:42:19.029Z,7.11
2019-03-12T02:43:19.046Z,7.05
2019-03-12T02:44:18.796Z,7.1
2019-03-12T02:45:19.089Z,7.06
2019-03-12T02:46:18.581Z,7.11
2019-03-12T02:47:19.105Z,7.03
2019-03-12T02:48:18.592Z,7.05
2019-03-12T02:49:18.891Z,7.07
2019-03-12T02:50:18.658Z,7.06
2019-03-12T02:51:19.188Z,7.11
2019-03-12T02:52:18.923Z,7.1
2019-03-12T02:53:18.945Z,7.11
2019-03-12T02:54:19.230Z,7.07
2019-03-12T02:55:19.391Z,7.06
2019-03-12T02:56:18.998Z,7
2019-03-12T02:57:18.744Z,7.07
2019-03-12T02:58:19.295Z,7.1
2019-03-12T02:59:19.039Z,7.06
2019-03-12T03:00:18.800Z,7.11
2019-03-12T03:01:19.076Z,7.06
2019-03-12T03:02:19.094Z,7.05
2019-03-12T03:03:19.131Z,7.03
2019-03-12T03:04:19.131Z,7.02
2019-03-12T03:05:19.577Z,7.05
2019-03-12T03:06:19.175Z,7.03
2019-03-12T03:07:18.911Z,7.02
2019-03-12T03:08:19.463Z,7.03
2019-03-12T03:09:19.215Z,6.97
2019-03-12T03:10:19.233Z,6.95
2019-03-12T03:11:19.276Z,6.99
2019-03-12T03:12:19.469Z,6.97
2019-03-12T03:13:19.335Z,6.93
2019-03-12T03:14:19.395Z,6.97
2019-03-12T03:15:19.582Z,6.97
2019-03-12T03:16:23.685Z,6.99
2019-03-12T03:17:19.091Z,6.95
2019-03-12T03:18:19.352Z,6.96
2019-03-12T03:19:19.416Z,6.97
2019-03-12T03:20:19.410Z,6.95
2019-03-12T03:21:19.162Z,6.96
2019-03-12T03:22:19.423Z,6.95
2019-03-12T03:23:19.438Z,6.99
2019-03-12T03:24:19.733Z,6.99
2019-03-12T03:25:19.747Z,6.96
2019-03-12T03:26:19.849Z,6.89
2019-03-12T03:27:19.508Z,6.87
2019-03-12T03:28:19.521Z,6.85
2019-03-12T03:29:19.538Z,6.95
2019-03-12T03:30:19.846Z,6.93
2019-03-12T03:31:19.616Z,6.93
2019-03-12T03:32:19.372Z,6.89
2019-03-12T03:33:19.608Z,6.92
2019-03-12T03:34:26.744Z,6.89
2019-03-12T03:35:19.934Z,6.89
2019-03-12T03:36:19.649Z,7
2019-03-12T03:37:19.942Z,6.89
2019-03-12T03:38:19.685Z,6.89
2019-03-12T03:39:19.438Z,6.97
2019-03-12T03:40:19.974Z,6.96
2019-03-12T03:41:19.735Z,6.89
2019-03-12T03:42:19.765Z,6.92
2019-03-12T03:43:19.510Z,6.92
2019-03-12T03:44:19.619Z,6.84
2019-03-12T03:45:19.550Z,6.88
2019-03-12T03:46:20.084Z,6.87
2019-03-12T03:47:24.037Z,6.88
2019-03-12T03:48:20.129Z,6.78
2019-03-12T03:49:19.880Z,6.88
2019-03-12T03:50:20.193Z,6.84
2019-03-12T03:51:20.212Z,6.84
2019-03-12T03:52:19.926Z,6.79
2019-03-12T03:53:19.675Z,6.93
2019-03-12T03:54:19.696Z,6.85
2019-03-12T03:55:20.271Z,6.88
2019-03-12T03:56:20.257Z,6.81
2019-03-12T03:57:20.003Z,6.87
2019-03-12T03:58:20.308Z,6.87
2019-03-12T03:59:20.290Z,6.84
2019-03-12T04:00:20.172Z,6.82
2019-03-12T04:01:20.062Z,6.84
2019-03-12T04:02:20.350Z,6.75
2019-03-12T04:03:19.839Z,6.77
2019-03-12T04:04:19.852Z,6.69
2019-03-12T04:05:20.131Z,6.74
2019-03-12T04:06:20.159Z,6.72
2019-03-12T04:07:19.899Z,6.7
2019-03-12T04:08:20.189Z,6.72
2019-03-12T04:09:19.928Z,6.72
2019-03-12T04:10:20.214Z,6.72
2019-03-12T04:11:20.489Z,6.72
2019-03-12T04:12:20.546Z,6.67
2019-03-12T04:13:20.383Z,6.69
2019-03-12T04:14:20.538Z,6.66
2019-03-12T04:15:20.324Z,6.75
2019-03-12T04:16:20.306Z,6.69
2019-03-12T04:17:20.333Z,6.7
2019-03-12T04:18:20.348Z,6.69
2019-03-12T04:19:20.383Z,6.7
2019-03-12T04:20:20.380Z,6.67
2019-03-12T04:21:20.392Z,6.69
2019-03-12T04:22:20.693Z,6.7
2019-03-12T04:23:21.301Z,6.67
2019-03-12T04:24:20.442Z,6.67
2019-03-12T04:25:20.456Z,6.66
2019-03-12T04:26:20.784Z,6.67
2019-03-12T04:27:20.511Z,6.75
2019-03-12T04:28:20.507Z,6.72
2019-03-12T04:29:20.524Z,6.74
2019-03-12T04:30:20.551Z,6.7
2019-03-12T04:31:20.558Z,6.7
2019-03-12T04:32:20.881Z,6.66
2019-03-12T04:33:20.587Z,6.63
2019-03-12T04:34:20.860Z,6.62
2019-03-12T04:35:20.888Z,6.66
2019-03-12T04:36:20.897Z,6.6
2019-03-12T04:37:20.650Z,6.63
2019-03-12T04:38:20.923Z,6.67
2019-03-12T04:39:20.685Z,6.62
2019-03-12T04:40:20.433Z,6.63
2019-03-12T04:41:20.709Z,6.67
2019-03-12T04:42:20.466Z,6.64
2019-03-12T04:43:20.743Z,6.66
2019-03-12T04:44:20.495Z,6.6
2019-03-12T04:45:20.788Z,6.57
2019-03-12T04:46:20.792Z,6.63
2019-03-12T04:47:20.811Z,6.63
2019-03-12T04:48:21.097Z,6.63
2019-03-12T04:49:20.845Z,6.66
2019-03-12T04:50:21.127Z,6.6
2019-03-12T04:51:21.138Z,6.59
2019-03-12T04:52:21.168Z,6.63
2019-03-12T04:53:20.929Z,6.64
2019-03-12T04:54:21.183Z,6.64
2019-03-12T04:55:20.945Z,6.6
2019-03-12T04:56:20.697Z,6.63
2019-03-12T04:57:20.974Z,6.62
2019-03-12T04:58:21.000Z,6.6
2019-03-12T04:59:20.746Z,6.66
2019-03-12T05:00:21.031Z,6.64
2019-03-12T05:01:20.800Z,6.66
2019-03-12T05:02:21.324Z,6.63
2019-03-12T05:03:21.070Z,6.6
2019-03-12T05:04:21.350Z,6.63
2019-03-12T05:05:21.396Z,6.6
2019-03-12T05:06:24.118Z,6.59
2019-03-12T05:07:20.878Z,6.6
2019-03-12T05:08:20.892Z,6.63
2019-03-12T05:09:20.926Z,6.63
2019-03-12T05:10:21.451Z,6.63
2019-03-12T05:11:21.198Z,6.59
2019-03-12T05:12:20.959Z,6.6
2019-03-12T05:13:21.496Z,6.64
2019-03-12T05:14:21.246Z,6.59
2019-03-12T05:15:21.539Z,6.63
2019-03-12T05:16:21.391Z,6.59
2019-03-12T05:17:21.306Z,6.6
2019-03-12T05:18:21.069Z,6.62
2019-03-12T05:19:21.073Z,6.66
2019-03-12T05:20:21.352Z,6.62
2019-03-12T05:21:21.369Z,6.6
2019-03-12T05:22:21.387Z,6.54
2019-03-12T05:23:21.398Z,6.67
2019-03-12T05:24:21.413Z,6.56
2019-03-12T05:25:21.431Z,6.62
2019-03-12T05:26:21.179Z,6.64
2019-03-12T05:27:21.198Z,6.63
2019-03-12T05:28:21.481Z,6.59
2019-03-12T05:29:21.231Z,6.57
2019-03-12T05:30:21.677Z,6.48
2019-03-12T05:31:21.579Z,6.54
2019-03-12T05:32:21.546Z,6.59
2019-03-12T05:33:21.300Z,6.57
2019-03-12T05:34:23.161Z,6.6
2019-03-12T05:35:21.695Z,6.62
2019-03-12T05:36:21.353Z,6.64
2019-03-12T05:37:21.422Z,6.57
2019-03-12T05:38:21.905Z,6.59
2019-03-12T05:39:21.397Z,6.49
2019-03-12T05:40:21.411Z,6.62
2019-03-12T05:41:21.954Z,6.54
2019-03-12T05:42:21.723Z,6.54
2019-03-12T05:43:21.831Z,6.59
2019-03-12T05:44:21.486Z,6.62
2019-03-12T05:45:21.765Z,6.59
2019-03-12T05:46:22.041Z,6.59
2019-03-12T05:47:21.787Z,6.63
2019-03-12T05:48:22.222Z,6.63
2019-03-12T05:49:21.825Z,6.62
2019-03-12T05:50:21.857Z,6.6
2019-03-12T05:51:21.855Z,6.6
2019-03-12T05:52:21.874Z,6.63
2019-03-12T05:53:22.159Z,6.63
2019-03-12T05:54:21.910Z,6.62
2019-03-12T05:55:21.921Z,6.6
2019-03-12T05:56:21.957Z,6.62
2019-03-12T05:57:21.693Z,6.66
2019-03-12T05:58:21.970Z,6.66
2019-03-12T05:59:21.986Z,6.6
2019-03-12T06:00:21.812Z,6.66
2019-03-12T06:01:22.027Z,6.62
2019-03-12T06:02:22.298Z,6.64
2019-03-12T06:03:22.060Z,6.62
2019-03-12T06:04:22.335Z,6.64
2019-03-12T06:05:22.358Z,6.6
2019-03-12T06:06:22.366Z,6.63
2019-03-12T06:07:22.126Z,6.66
2019-03-12T06:08:21.879Z,6.64
2019-03-12T06:09:34.092Z,6.6
2019-03-12T06:10:22.436Z,6.62
2019-03-12T06:11:22.014Z,6.63
2019-03-12T06:12:22.211Z,6.63
2019-03-12T06:13:21.951Z,6.66
2019-03-12T06:14:21.979Z,6.6
2019-03-12T06:15:22.257Z,6.62
2019-03-12T06:16:22.532Z,6.64
2019-03-12T06:17:22.279Z,6.66
2019-03-12T06:18:22.297Z,6.64
2019-03-12T06:19:22.577Z,6.63
2019-03-12T06:20:22.616Z,6.69
2019-03-12T06:21:22.086Z,6.62
2019-03-12T06:22:22.103Z,6.69
2019-03-12T06:23:22.123Z,6.67
2019-03-12T06:24:22.140Z,6.67
2019-03-12T06:25:22.521Z,6.66
2019-03-12T06:26:22.166Z,6.74
2019-03-12T06:27:22.718Z,6.74
2019-03-12T06:28:22.204Z,6.67
2019-03-12T06:29:22.223Z,6.63
2019-03-12T06:30:25.561Z,6.63
2019-03-12T06:31:22.523Z,6.75
2019-03-12T06:32:22.826Z,6.66
2019-03-12T06:33:26.597Z,6.67
2019-03-12T06:34:22.300Z,6.64
2019-03-12T06:35:22.576Z,6.66
2019-03-12T06:36:22.592Z,6.64
2019-03-12T06:37:22.347Z,6.7
2019-03-12T06:38:22.625Z,6.7
2019-03-12T06:39:22.384Z,6.63
2019-03-12T06:40:22.919Z,6.75
2019-03-12T06:41:22.675Z,6.72
2019-03-12T06:42:22.428Z,6.63
2019-03-12T06:43:22.441Z,6.66
2019-03-12T06:44:22.724Z,6.7
2019-03-12T06:45:22.579Z,6.66
2019-03-12T06:46:22.495Z,6.72
2019-03-12T06:47:23.037Z,6.7
2019-03-12T06:48:22.527Z,6.77
2019-03-12T06:49:23.068Z,6.81
2019-03-12T06:50:22.591Z,6.74
2019-03-12T06:51:22.840Z,6.81
2019-03-12T06:52:22.873Z,6.79
2019-03-12T06:53:22.875Z,6.81
2019-03-12T06:54:22.888Z,6.75
2019-03-12T06:55:22.906Z,6.82
2019-03-12T06:56:22.659Z,6.74
2019-03-12T06:57:22.950Z,6.82
2019-03-12T06:58:22.696Z,6.82
2019-03-12T06:59:23.232Z,6.79
2019-03-12T07:00:22.986Z,6.78
2019-03-12T07:01:23.004Z,6.82
2019-03-12T07:02:22.757Z,6.81
2019-03-12T07:03:23.038Z,6.81
2019-03-12T07:04:23.054Z,6.79
2019-03-12T07:05:23.069Z,6.81
2019-03-12T07:06:22.827Z,6.89
2019-03-12T07:07:22.840Z,6.85
2019-03-12T07:08:23.207Z,6.88
2019-03-12T07:09:23.139Z,6.74
2019-03-12T07:10:23.150Z,6.79
2019-03-12T07:11:22.926Z,6.89
2019-03-12T07:12:23.445Z,6.85
2019-03-12T07:13:23.461Z,6.78
2019-03-12T07:14:24.955Z,6.82
2019-03-12T07:15:23.499Z,6.88
2019-03-12T07:16:23.275Z,6.92
2019-03-12T07:17:23.278Z,6.85
2019-03-12T07:18:23.025Z,6.82
2019-03-12T07:19:23.046Z,6.84
2019-03-12T07:20:23.061Z,6.92
2019-03-12T07:21:23.594Z,6.89
2019-03-12T07:22:23.347Z,6.89
2019-03-12T07:23:23.365Z,6.82
2019-03-12T07:24:23.382Z,6.97
2019-03-12T07:25:23.677Z,6.87
2019-03-12T07:26:23.415Z,6.95
2019-03-12T07:27:23.168Z,6.88
2019-03-12T07:28:23.714Z,6.96
2019-03-12T07:29:23.468Z,6.88
2019-03-12T07:30:23.223Z,6.92
2019-03-12T07:31:23.625Z,6.92
2019-03-12T07:32:23.514Z,6.89
2019-03-12T07:33:23.831Z,6.93
2019-03-12T07:34:35.841Z,6.96
2019-03-12T07:35:25.013Z,6.93
2019-03-12T07:36:23.578Z,6.96
2019-03-12T07:37:23.341Z,7.07
2019-03-12T07:38:23.622Z,7.06
2019-03-12T07:39:23.629Z,7.05
2019-03-12T07:40:24.894Z,7.06
2019-03-12T07:41:36.132Z,7.07
2019-03-12T07:42:23.680Z,7.02
2019-03-12T07:43:23.696Z,7.02
2019-03-12T07:44:23.462Z,7.1
2019-03-12T07:45:24.007Z,7.15
2019-03-12T07:46:23.753Z,7.14
2019-03-12T07:47:35.069Z,7.28
2019-03-12T07:48:23.786Z,7.11
2019-03-12T07:49:23.532Z,7.2
2019-03-12T07:50:23.814Z,7.33
2019-03-12T07:51:23.830Z,7.29
2019-03-12T07:52:24.111Z,7.32
2019-03-12T07:53:23.865Z,7.38
2019-03-12T07:54:23.879Z,7.38
2019-03-12T07:55:23.914Z,7.4
2019-03-12T07:56:23.653Z,7.4
2019-03-12T07:57:23.668Z,7.43
2019-03-12T07:58:37.295Z,7.43
2019-03-12T07:59:23.705Z,7.48
2019-03-12T08:00:23.987Z,7.48
2019-03-12T08:01:25.067Z,7.48
2019-03-12T08:02:24.307Z,7.5
2019-03-12T08:03:24.304Z,7.5
2019-03-12T08:04:24.072Z,7.51
2019-03-12T08:05:24.333Z,7.5
2019-03-12T08:06:23.822Z,7.57
2019-03-12T08:07:24.113Z,7.53
2019-03-12T08:08:24.123Z,7.63
2019-03-12T08:09:24.192Z,7.6
2019-03-12T08:10:23.888Z,7.57
2019-03-12T08:11:23.906Z,7.69
2019-03-12T08:12:24.214Z,7.7
2019-03-12T08:13:24.200Z,7.7
2019-03-12T08:14:26.670Z,7.66
2019-03-12T08:15:28.348Z,7.69
2019-03-12T08:16:24.513Z,7.69
2019-03-12T08:17:24.072Z,7.72
2019-03-12T08:18:24.019Z,7.67
2019-03-12T08:19:24.306Z,7.77
2019-03-12T08:20:24.063Z,7.8
2019-03-12T08:21:27.069Z,7.83
2019-03-12T08:22:24.100Z,7.83
2019-03-12T08:23:24.638Z,7.79
2019-03-12T08:24:24.399Z,7.82
2019-03-12T08:25:24.405Z,7.88
2019-03-12T08:26:24.422Z,7.9
2019-03-12T08:27:26.019Z,7.8
2019-03-12T08:28:24.770Z,7.91
2019-03-12T08:29:24.737Z,7.88
2019-03-12T08:30:24.753Z,7.85
2019-03-12T08:31:24.509Z,7.93
2019-03-12T08:32:26.485Z,7.94
2019-03-12T08:33:24.314Z,7.98
2019-03-12T08:34:24.564Z,7.94
2019-03-12T08:35:24.578Z,7.91
2019-03-12T08:36:24.591Z,8
2019-03-12T08:37:24.618Z,7.98
2019-03-12T08:38:24.897Z,8.15
2019-03-12T08:39:24.643Z,8.08
2019-03-12T08:40:24.402Z,7.98
2019-03-12T08:41:24.425Z,7.95
2019-03-12T08:42:24.701Z,8.12
2019-03-12T08:43:24.449Z,8.05
2019-03-12T08:44:26.307Z,8.12
2019-03-12T08:45:24.851Z,8.12
2019-03-12T08:46:26.710Z,8.1
2019-03-12T08:47:25.047Z,8.13
2019-03-12T08:48:24.588Z,8.13
2019-03-12T08:49:25.094Z,8.09
2019-03-12T08:50:25.101Z,8.16
2019-03-12T08:51:24.856Z,8.15
2019-03-12T08:52:24.872Z,8.12
2019-03-12T08:53:25.150Z,8.16
2019-03-12T08:54:25.989Z,8.08
2019-03-12T08:55:24.924Z,8.1
2019-03-12T08:56:24.937Z,8.16
2019-03-12T08:57:24.958Z,8.1
2019-03-12T08:58:24.977Z,8.1
2019-03-12T08:59:24.724Z,8.15
2019-03-12T09:00:26.705Z,8.13
2019-03-12T09:01:25.025Z,8.15
2019-03-12T09:02:24.786Z,8.15
2019-03-12T09:03:25.056Z,8.15
2019-03-12T09:04:25.339Z,8.13
2019-03-12T09:05:25.093Z,8.16
2019-03-12T09:06:25.117Z,8.15
2019-03-12T09:07:25.127Z,8.18
2019-03-12T09:08:25.145Z,8.2
2019-03-12T09:09:25.165Z,8.2
2019-03-12T09:10:24.916Z,8.24
2019-03-12T09:11:25.194Z,8.15
2019-03-12T09:12:25.212Z,8.24
2019-03-12T09:13:24.964Z,8.19
2019-03-12T09:14:25.259Z,8.24
2019-03-12T09:15:25.269Z,8.23
2019-03-12T09:16:25.285Z,8.18
2019-03-12T09:17:25.040Z,8.2
2019-03-12T09:18:25.589Z,8.23
2019-03-12T09:19:25.600Z,8.18
2019-03-12T09:20:25.615Z,8.16
2019-03-12T09:21:25.630Z,8.19
2019-03-12T09:22:25.389Z,8.16
2019-03-12T09:23:25.143Z,8.16
2019-03-12T09:24:25.422Z,8.24
2019-03-12T09:25:25.177Z,8.24
2019-03-12T09:26:25.457Z,8.23
2019-03-12T09:27:25.483Z,8.3
2019-03-12T09:28:25.505Z,8.28
2019-03-12T09:29:25.772Z,8.26
2019-03-12T09:30:25.790Z,8.26
2019-03-12T09:31:25.590Z,8.28
2019-03-12T09:32:25.565Z,8.36
2019-03-12T09:33:25.582Z,8.33
2019-03-12T09:34:25.334Z,8.33
2019-03-12T09:35:25.611Z,8.36
2019-03-12T09:36:25.636Z,8.41
2019-03-12T09:37:25.646Z,8.37
2019-03-12T09:38:25.666Z,8.42
2019-03-12T09:39:25.420Z,8.38
2019-03-12T09:40:25.478Z,8.42
2019-03-12T09:41:25.719Z,8.49
2019-03-12T09:42:25.734Z,8.41
2019-03-12T09:43:25.490Z,8.49
2019-03-12T09:44:25.768Z,8.49
2019-03-12T09:45:26.051Z,8.48
2019-03-12T09:46:25.859Z,8.41
2019-03-12T09:47:25.819Z,8.52
2019-03-12T09:48:25.848Z,8.49
2019-03-12T09:49:27.571Z,8.51
2019-03-12T09:50:25.874Z,8.48
2019-03-12T09:51:25.895Z,8.56
2019-03-12T09:52:25.912Z,8.49
2019-03-12T09:53:25.667Z,8.61
2019-03-12T09:54:25.681Z,8.52
2019-03-12T09:55:26.228Z,8.58
2019-03-12T09:56:25.982Z,8.6
2019-03-12T09:57:25.802Z,8.56
2019-03-12T09:58:25.757Z,8.66
2019-03-12T09:59:26.302Z,8.52
2019-03-12T10:00:25.787Z,8.64
2019-03-12T10:01:25.810Z,8.61
2019-03-12T10:02:25.825Z,8.6
2019-03-12T10:03:26.108Z,8.61
2019-03-12T10:04:26.197Z,8.6
2019-03-12T10:05:26.140Z,8.67
2019-03-12T10:06:26.159Z,8.63
2019-03-12T10:07:25.911Z,8.64
2019-03-12T10:08:26.189Z,8.7
2019-03-12T10:09:25.951Z,8.66
2019-03-12T10:10:26.242Z,8.66
2019-03-12T10:11:26.250Z,8.7
2019-03-12T10:12:26.261Z,8.69
2019-03-12T10:13:26.279Z,8.7
2019-03-12T10:14:26.046Z,8.85
2019-03-12T10:15:26.324Z,8.76
2019-03-12T10:16:26.332Z,8.74
2019-03-12T10:17:26.620Z,8.78
2019-03-12T10:18:26.649Z,8.81
2019-03-12T10:19:26.127Z,8.76
2019-03-12T10:20:26.664Z,8.82
2019-03-12T10:21:26.157Z,8.73
2019-03-12T10:22:26.705Z,8.87
2019-03-12T10:23:26.458Z,8.89
2019-03-12T10:24:28.517Z,8.91
2019-03-12T10:25:26.230Z,8.92
2019-03-12T10:26:26.843Z,8.94
2019-03-12T10:27:26.280Z,8.95
2019-03-12T10:28:26.283Z,8.92
2019-03-12T10:29:26.830Z,8.94
2019-03-12T10:30:26.595Z,8.99
2019-03-12T10:31:26.337Z,9.1
2019-03-12T10:32:26.876Z,9.03
2019-03-12T10:33:26.638Z,9.06
2019-03-12T10:34:34.620Z,9.06
2019-03-12T10:35:26.672Z,9.06
2019-03-12T10:36:27.073Z,9.04
2019-03-12T10:37:26.705Z,9.06
2019-03-12T10:38:26.471Z,9.08
2019-03-12T10:39:26.476Z,9.19
2019-03-12T10:40:26.761Z,9.18
2019-03-12T10:41:26.776Z,9.21
2019-03-12T10:42:26.536Z,9.25
2019-03-12T10:43:26.551Z,9.19
2019-03-12T10:44:26.842Z,9.23
2019-03-12T10:45:26.754Z,9.25
2019-03-12T10:46:26.682Z,9.23
2019-03-12T10:47:26.624Z,9.25
2019-03-12T10:48:27.001Z,9.25
2019-03-12T10:49:39.753Z,9.26
2019-03-12T10:50:26.967Z,9.29
2019-03-12T10:51:26.759Z,9.37
2019-03-12T10:52:26.712Z,9.34
2019-03-12T10:53:26.992Z,9.4
2019-03-12T10:54:27.275Z,9.39
2019-03-12T10:55:26.770Z,9.46
2019-03-12T10:56:26.791Z,9.46
2019-03-12T10:57:27.069Z,9.41
2019-03-12T10:58:27.348Z,9.48
2019-03-12T10:59:26.838Z,9.41
2019-03-12T11:00:27.388Z,9.47
2019-03-12T11:01:27.142Z,9.5
2019-03-12T11:02:27.161Z,9.47
2019-03-12T11:03:26.911Z,9.44
2019-03-12T11:04:27.208Z,9.48
2019-03-12T11:05:27.101Z,9.48
2019-03-12T11:06:27.243Z,9.51
2019-03-12T11:07:27.511Z,9.54
2019-03-12T11:08:27.276Z,9.51
2019-03-12T11:09:27.601Z,9.56
2019-03-12T11:10:27.465Z,9.64
2019-03-12T11:11:27.059Z,9.58
2019-03-12T11:12:27.082Z,9.68
2019-03-12T11:13:27.370Z,9.58
2019-03-12T11:14:27.120Z,9.58
2019-03-12T11:15:27.141Z,9.69
2019-03-12T11:16:27.414Z,9.74
2019-03-12T11:17:27.698Z,9.68
2019-03-12T11:18:27.465Z,9.72
2019-03-12T11:19:27.211Z,9.74
2019-03-12T11:20:27.497Z,9.68
2019-03-12T11:21:27.770Z,9.69
2019-03-12T11:22:27.536Z,9.74
2019-03-12T11:23:27.540Z,9.72
2019-03-12T11:24:27.611Z,9.72
2019-03-12T11:25:32.583Z,9.8
2019-03-12T11:26:27.859Z,9.76
2019-03-12T11:27:27.879Z,9.73
2019-03-12T11:28:29.039Z,9.84
2019-03-12T11:29:27.654Z,9.79
2019-03-12T11:30:27.668Z,9.76
2019-03-12T11:31:27.505Z,9.76
2019-03-12T11:32:27.447Z,9.72
2019-03-12T11:33:28.002Z,9.82
2019-03-12T11:34:27.482Z,9.76
2019-03-12T11:35:38.058Z,9.74
2019-03-12T11:36:28.233Z,9.76
2019-03-12T11:37:27.815Z,9.77
2019-03-12T11:38:28.243Z,9.74
2019-03-12T11:39:28.197Z,9.77
2019-03-12T11:40:33.162Z,9.8
2019-03-12T11:41:28.208Z,9.82
2019-03-12T11:42:27.894Z,9.79
2019-03-12T11:43:27.939Z,9.76
2019-03-12T11:44:28.208Z,9.74
2019-03-12T11:45:41.128Z,9.84
2019-03-12T11:46:27.789Z,9.77
2019-03-12T11:47:28.148Z,9.82
2019-03-12T11:48:28.015Z,9.83
2019-03-12T11:49:27.848Z,9.79
2019-03-12T11:50:28.237Z,9.77
2019-03-12T11:51:27.881Z,9.79
2019-03-12T11:52:28.385Z,9.84
2019-03-12T11:53:28.408Z,9.79
2019-03-12T11:54:28.575Z,9.84
2019-03-12T11:55:28.294Z,9.76
2019-03-12T11:56:28.749Z,9.74
2019-03-12T11:57:28.036Z,9.84
2019-03-12T11:58:28.250Z,9.79
2019-03-12T11:59:28.407Z,9.77
2019-03-12T12:00:28.583Z,9.74
2019-03-12T12:01:28.240Z,9.76
2019-03-12T12:02:28.004Z,9.76
2019-03-12T12:03:28.019Z,9.83
2019-03-12T12:04:28.041Z,9.74
2019-03-12T12:05:28.577Z,9.89
2019-03-12T12:06:28.111Z,9.91
2019-03-12T12:07:28.431Z,9.79
2019-03-12T12:08:28.635Z,9.91
2019-03-12T12:09:28.399Z,9.91
2019-03-12T12:10:28.372Z,9.92
2019-03-12T12:11:28.167Z,9.86
2019-03-12T12:12:28.454Z,9.94
2019-03-12T12:13:28.801Z,9.92
2019-03-12T12:14:28.484Z,9.97
2019-03-12T12:15:28.775Z,9.91
2019-03-12T12:16:28.527Z,9.99
2019-03-12T12:17:28.804Z,9.94
2019-03-12T12:18:28.564Z,10.01
2019-03-12T12:19:28.575Z,9.92
2019-03-12T12:20:34.587Z,9.98
2019-03-12T12:21:28.875Z,10.04
2019-03-12T12:22:28.895Z,10.04
2019-03-12T12:23:28.653Z,10.07
2019-03-12T12:24:31.591Z,10.05
2019-03-12T12:25:28.689Z,10.02
2019-03-12T12:26:28.970Z,10.09
2019-03-12T12:27:28.471Z,10.13
2019-03-12T12:28:28.744Z,10.04
2019-03-12T12:29:28.500Z,10.12
2019-03-12T12:30:28.782Z,10.09
2019-03-12T12:31:28.799Z,10.09
2019-03-12T12:32:28.819Z,10.19
2019-03-12T12:33:29.108Z,10.15
2019-03-12T12:34:28.863Z,10.1
2019-03-12T12:35:28.875Z,10.2
2019-03-12T12:36:28.900Z,10.19
2019-03-12T12:37:28.915Z,10.17
2019-03-12T12:38:28.928Z,10.15
2019-03-12T12:39:29.220Z,10.19
2019-03-12T12:40:28.706Z,10.17
2019-03-12T12:41:29.087Z,10.19
2019-03-12T12:42:29.006Z,10.2
2019-03-12T12:43:29.025Z,10.26
2019-03-12T12:44:29.051Z,10.17
2019-03-12T12:45:29.144Z,10.22
2019-03-12T12:46:29.085Z,10.2
2019-03-12T12:47:29.105Z,10.19
2019-03-12T12:48:29.381Z,10.25
2019-03-12T12:49:28.876Z,10.25
2019-03-12T12:50:29.158Z,10.28
2019-03-12T12:51:29.441Z,10.28
2019-03-12T12:52:28.930Z,10.26
2019-03-12T12:53:29.213Z,10.28
2019-03-12T12:54:28.975Z,10.26
2019-03-12T12:55:29.257Z,10.34
2019-03-12T12:56:29.278Z,10.35
2019-03-12T12:57:29.554Z,10.26
2019-03-12T12:58:29.311Z,10.3
2019-03-12T12:59:29.593Z,10.22
2019-03-12T13:00:29.088Z,10.33
2019-03-12T13:01:29.114Z,10.28
2019-03-12T13:02:29.430Z,10.28
2019-03-12T13:03:29.145Z,10.34
2019-03-12T13:04:29.423Z,10.26
2019-03-12T13:05:29.440Z,10.31
2019-03-12T13:06:29.197Z,10.31
2019-03-12T13:07:29.223Z,10.26
2019-03-12T13:08:29.503Z,10.26
2019-03-12T13:09:29.517Z,10.31
2019-03-12T13:10:29.538Z,10.34
2019-03-12T13:11:29.293Z,10.31
2019-03-12T13:12:29.572Z,10.28
2019-03-12T13:13:29.591Z,10.37
2019-03-12T13:14:40.892Z,10.33
2019-03-12T13:15:29.893Z,10.33
2019-03-12T13:16:30.426Z,10.26
2019-03-12T13:17:29.415Z,10.26
2019-03-12T13:18:29.953Z,10.35
2019-03-12T13:19:29.807Z,10.28